Airfield :
LOGIN :

Register | Disclaimer

   EN    FR    IT 

 










Legend :    VFR   Marginal VFR   IFR   Intensive IFR   Very Intensive IFR
Visi :
Ceiling :
>= 8 km
>= 3000ft
5 to 8 km
1000 to 3000 ft
1500m to 5 km
500 to 1000 ft
800 to 1500m
200 to 500 ft
< 800m
< 200 ft
Symbols :   Thunderstorms  Fog  Heavy snow  Heavy precipitations  Wind > 20 kt
SIGMETs :     Misc.  Thunderstorms  Icing  Turbulence  Mountain Waves  Volcanic Ashes






- Airport Elevation : 333 ft


LIPL - Ghedi Brescia (Mil)

CURRENT METAR :
  • 110255Z /////KT 6000 -RA SCT008 BKN020 10/09 Q1017 RMK OVC VIS MIN 6000 WIND THR31 06010KT WIND THR13 /////KT WHT

EXPIRED METARs :
  • 110155Z /////KT 6000 -RA SCT008 BKN020 10/10 Q1018 RMK OVC VIS MIN 6000 WIND THR31 05010KT WIND THR13 /////KT WHT
  • 110055Z /////KT 6000 -RA SCT012 BKN040 10/10 Q1019 RMK OVC VIS MIN 6000 WIND THR31 06005KT WIND THR13 /////KT WHT

TAF TAF LIPL
Valid from the 11 at 03:00 until the 11 at 12:00 UTC


110200Z 1103/1112 02008KT 9999 SCT030 BKN060
TEMPO 1103/1112 3000 RA BR BKN025 SCT050



MET'MAP, your aeronautical weather chart ! - Copyright ORBIFLY December 2007 - Disclaimer

ORBIFLY MET'MAP TEAM :

Programming & Development : Alexandra Zaïnal
Concept & original design : Baudouin d'Aumeries
Assistance for programming : Marc-Olivier Méhu
Technical & hardware support : Manuel Goepfert

Contact : metmap@orbifly.com




SOURCES & CREDITS :

   NOAA